Libuse, LA (71348)

6:20 AM CDT on August 28, 2016 (GMT -0500)
Cherokee Village | | Change Station

Elev 77 ft 31.26 °N, 92.48 °W | Updated 0 second ago

Fog
Fog
74.3 °F
Feels Like 71 °F
N
0.0
Wind Variable Wind from SW
Gusts 0.0 mph

Today
High -- | Low -- °F
--% Chance of Precip.
Yesterday
High -- | Low -- °F
Precip. -- in
Pressure 29.99 in
Visibility 0.5 miles
Clouds
Heat Index 71 °F
Dew Point 74 °F
Humidity 99%
Rainfall 0.00 in
Snow Depth Not available.
6:43 AM 7:37 PM
Waning Crescent, 16% visible
METAR KAEX 281053Z AUTO 00000KT 1/2SM FG VV002 23/23 A2998 RMK AO2 SLP154 T02280228
Pressure 29.99 in
Visibility 0.5 miles
Clouds
Heat Index 71 °F
Dew Point 74 °F
Humidity 99%
Rainfall 0.00 in
Snow Depth Not available.
6:43 AM 7:37 PM
Waning Crescent, 16% visible
METAR KAEX 281053Z AUTO 00000KT 1/2SM FG VV002 23/23 A2998 RMK AO2 SLP154 T02280228

10-Day Weather Forecast

Almanac

Astronomy

Aug. 28, 2016 Rise Set
Actual Time
Civil Twilight
Nautical Twilight
Astronomical Twilight
Moon
Length of Visible Light
Length of Day
Tomorrow will be .
, % of the Moon is Illuminated

Today's Extremes

State Highs State Lows

Community

WunderPhotos

Upload Photos

1,935,543 photos uploaded!

WunderBlog® & News

Nearby

Air Quality

  Air Quality AQ Index Pollutant
Not available.

Snow Depth

Station Depth Elevation

Earthquake Activity

City Distance Mag. Time & Date
Minimum magnitude displayed is 2.5.

Coastal Water Temperatures

Place Temperature

Stations

Nearby Weather Stations

Station Location Temp. Windchill Dew Point Humidity Wind Precip. Elev Updated Type
                   

Watches & Warnings

There are currently no watches in effect.